Ljuta — J8B4127 — position and weather

sailwx.info

Track history (hours):
 
Tides and Currents Weather Stations Pressure Air Temp Water Temp Dewpoint Dewpoint Depression Visibility Wind Speed Wind Dir Waves Ship Positions

Ljuta

Last reported at 2014-Oct-21 20:13 UTC. Time now 2014-Oct-23 21:58 UTC.
Position N 36°49' E 003°06'.

Length 177 m; draft 9.7 m.

Type: Cargo ship. MMSI: 377715000.

Date/timePositionNaut miles runAvg speedWind from/ knotsBaromVisibWave heightAir tempDewpointWater temp
2014-Oct-21 20:13N 36°49' E 003°06'0 0.0
2014-Oct-21 17:25N 36°49' E 003°06'0 0.0
2014-Oct-21 16:31N 36°49' E 003°06'0 0.0
2014-Oct-21 15:31N 36°49' E 003°06'0 0.0
2014-Oct-21 14:31N 36°49' E 003°06'0 0.0
2014-Oct-21 13:19N 36°49' E 003°06'0 0.1
2014-Oct-21 12:31N 36°49' E 003°06'0 0.1
2014-Oct-21 11:31N 36°49' E 003°06'  
2014-Oct-18 19:14N 36°31' E 000°24'913.3
2014-Oct-18 18:33N 36°29' E 000°13'4113.9
2014-Oct-18 15:33N 36°22' W 000°38'3513.9
2014-Oct-18 13:03N 36°16' W 001°20'814.2
2014-Oct-18 12:29N 36°15' W 001°30'18114.0
2014-Oct-17 23:33N 35°58' W 005°13'1414.3
2014-Oct-17 22:33N 35°57' W 005°30'23311.5
2014-Oct-17 02:15N 37°43' W 009°49'  
2014-Oct-13 18:21N 50°31' E 000°10'1013.0
2014-Oct-13 17:33N 50°34' E 000°26'1312.5
2014-Oct-13 16:33N 50°41' E 000°43'1211.7
2014-Oct-13 15:30N 50°48' E 000°58'1010.5
2014-Oct-13 14:33N 50°55' E 001°10'10 9.9
2014-Oct-13 13:33N 51°02' E 001°22'1111.0
2014-Oct-13 12:33N 51°09' E 001°35'1413.7
2014-Oct-13 11:34N 51°18' E 001°51'1514.7
2014-Oct-13 10:33N 51°30' E 002°05'1414.1
2014-Oct-13 09:32N 51°42' E 002°19'10812.9
2014-Oct-13 01:10N 53°04' E 004°11'3014.2
2014-Oct-12 23:04N 53°29' E 004°39'713.3
2014-Oct-12 22:34N 53°32' E 004°50'1212.5
2014-Oct-12 21:34N 53°36' E 005°09'1212.3
2014-Oct-12 20:33N 53°40' E 005°29'1312.8
2014-Oct-12 19:34N 53°43' E 005°50'5914.3
2014-Oct-12 15:27N 54°00' E 007°26'1213.7
2014-Oct-12 14:34N 54°02' E 007°46'1313.0
2014-Oct-12 13:33N 54°01' E 008°08'1111.0
2014-Oct-12 12:34N 53°59' E 008°27'10 9.5
2014-Oct-12 11:33N 53°55' E 008°41'1010.2
2014-Oct-12 10:33N 53°51' E 008°57'1212.0
2014-Oct-12 09:33N 53°52' E 009°18'1413.8
2014-Oct-12 08:34N 53°40' E 009°31'1312.7
2014-Oct-12 07:33N 53°33' E 009°48'7 6.6
2014-Oct-12 06:34N 53°30' E 009°58'1 1.1
2014-Oct-12 05:31N 53°29' E 009°59'0 0.0
2014-Oct-12 04:33N 53°29' E 009°59'0 0.0
2014-Oct-12 03:33N 53°29' E 009°59'0 0.0
2014-Oct-12 02:31N 53°29' E 009°59'0 0.0
2014-Oct-12 01:30N 53°29' E 009°59'0 0.0
2014-Oct-12 00:30N 53°29' E 009°59'0 0.0
2014-Oct-11 23:33N 53°29' E 009°59'0 0.0
2014-Oct-11 22:30N 53°29' E 009°59'0 0.0
2014-Oct-11 21:33N 53°29' E 009°59'0 0.0
2014-Oct-11 20:33N 53°29' E 009°59'  
Track history (hours):
 
Tides and Currents Weather Stations Pressure Air Temp Water Temp Dewpoint Dewpoint Depression Visibility Wind Speed Wind Dir Waves Ship Positions

Ljuta

Last reported at 2014-Oct-21 20:13 UTC. Time now 2014-Oct-23 21:58 UTC.
Position N 36°49' E 003°06'.

Length 177 m; draft 9.7 m.

Type: Cargo ship. MMSI: 377715000.

Date/timePositionNaut miles runAvg speedWind from/ knotsBaromVisibWave heightAir tempDewpointWater temp
2014-Oct-21 20:13N 36°49' E 003°06'0 0.0
2014-Oct-21 17:25N 36°49' E 003°06'0 0.0
2014-Oct-21 16:31N 36°49' E 003°06'0 0.0
2014-Oct-21 15:31N 36°49' E 003°06'0 0.0
2014-Oct-21 14:31N 36°49' E 003°06'0 0.0
2014-Oct-21 13:19N 36°49' E 003°06'0 0.1
2014-Oct-21 12:31N 36°49' E 003°06'0 0.1
2014-Oct-21 11:31N 36°49' E 003°06'  
2014-Oct-18 19:14N 36°31' E 000°24'913.3
2014-Oct-18 18:33N 36°29' E 000°13'4113.9
2014-Oct-18 15:33N 36°22' W 000°38'3513.9
2014-Oct-18 13:03N 36°16' W 001°20'814.2
2014-Oct-18 12:29N 36°15' W 001°30'18114.0
2014-Oct-17 23:33N 35°58' W 005°13'1414.3
2014-Oct-17 22:33N 35°57' W 005°30'23311.5
2014-Oct-17 02:15N 37°43' W 009°49'  
2014-Oct-13 18:21N 50°31' E 000°10'1013.0
2014-Oct-13 17:33N 50°34' E 000°26'1312.5
2014-Oct-13 16:33N 50°41' E 000°43'1211.7
2014-Oct-13 15:30N 50°48' E 000°58'1010.5
2014-Oct-13 14:33N 50°55' E 001°10'10 9.9
2014-Oct-13 13:33N 51°02' E 001°22'1111.0
2014-Oct-13 12:33N 51°09' E 001°35'1413.7
2014-Oct-13 11:34N 51°18' E 001°51'1514.7
2014-Oct-13 10:33N 51°30' E 002°05'1414.1
2014-Oct-13 09:32N 51°42' E 002°19'10812.9
2014-Oct-13 01:10N 53°04' E 004°11'3014.2
2014-Oct-12 23:04N 53°29' E 004°39'713.3
2014-Oct-12 22:34N 53°32' E 004°50'1212.5
2014-Oct-12 21:34N 53°36' E 005°09'1212.3
2014-Oct-12 20:33N 53°40' E 005°29'1312.8
2014-Oct-12 19:34N 53°43' E 005°50'5914.3
2014-Oct-12 15:27N 54°00' E 007°26'1213.7
2014-Oct-12 14:34N 54°02' E 007°46'1313.0
2014-Oct-12 13:33N 54°01' E 008°08'1111.0
2014-Oct-12 12:34N 53°59' E 008°27'10 9.5
2014-Oct-12 11:33N 53°55' E 008°41'1010.2
2014-Oct-12 10:33N 53°51' E 008°57'1212.0
2014-Oct-12 09:33N 53°52' E 009°18'1413.8
2014-Oct-12 08:34N 53°40' E 009°31'1312.7
2014-Oct-12 07:33N 53°33' E 009°48'7 6.6
2014-Oct-12 06:34N 53°30' E 009°58'1 1.1
2014-Oct-12 05:31N 53°29' E 009°59'0 0.0
2014-Oct-12 04:33N 53°29' E 009°59'0 0.0
2014-Oct-12 03:33N 53°29' E 009°59'0 0.0
2014-Oct-12 02:31N 53°29' E 009°59'0 0.0
2014-Oct-12 01:30N 53°29' E 009°59'0 0.0
2014-Oct-12 00:30N 53°29' E 009°59'0 0.0
2014-Oct-11 23:33N 53°29' E 009°59'0 0.0
2014-Oct-11 22:30N 53°29' E 009°59'0 0.0
2014-Oct-11 21:33N 53°29' E 009°59'0 0.0
2014-Oct-11 20:33N 53°29' E 009°59'  

Dump ship's entire track history